sensor_id;sensor_type;location;lat;lon;timestamp;P1;durP1;ratioP1;P2;durP2;ratioP2
31660;SDS011;18267;52.234;7.444;2023-04-01T00:00:28;5.15;;;3.67;;
31660;SDS011;18267;52.234;7.444;2023-04-01T00:02:54;7.10;;;4.75;;
31660;SDS011;18267;52.234;7.444;2023-04-01T00:05:20;9.10;;;4.20;;
31660;SDS011;18267;52.234;7.444;2023-04-01T00:07:46;5.85;;;4.55;;
31660;SDS011;18267;52.234;7.444;2023-04-01T00:10:12;10.38;;;4.07;;
31660;SDS011;18267;52.234;7.444;2023-04-01T00:12:40;9.02;;;4.28;;
31660;SDS011;18267;52.234;7.444;2023-04-01T00:15:06;6.13;;;3.80;;
31660;SDS011;18267;52.234;7.444;2023-04-01T00:17:35;7.05;;;3.58;;
31660;SDS011;18267;52.234;7.444;2023-04-01T00:20:01;8.85;;;4.10;;
31660;SDS011;18267;52.234;7.444;2023-04-01T00:22:28;9.00;;;4.50;;
31660;SDS011;18267;52.234;7.444;2023-04-01T00:24:53;10.48;;;3.67;;
31660;SDS011;18267;52.234;7.444;2023-04-01T00:27:19;6.78;;;3.35;;
31660;SDS011;18267;52.234;7.444;2023-04-01T00:29:45;12.10;;;3.95;;
31660;SDS011;18267;52.234;7.444;2023-04-01T00:32:12;4.43;;;3.65;;
31660;SDS011;18267;52.234;7.444;2023-04-01T00:34:38;12.48;;;4.32;;
31660;SDS011;18267;52.234;7.444;2023-04-01T00:37:04;5.05;;;4.10;;
31660;SDS011;18267;52.234;7.444;2023-04-01T00:39:31;8.38;;;3.85;;
31660;SDS011;18267;52.234;7.444;2023-04-01T00:41:58;4.32;;;3.83;;
31660;SDS011;18267;52.234;7.444;2023-04-01T00:44:25;6.55;;;3.72;;
31660;SDS011;18267;52.234;7.444;2023-04-01T00:46:52;7.03;;;3.65;;
31660;SDS011;18267;52.234;7.444;2023-04-01T00:49:19;8.32;;;3.83;;
31660;SDS011;18267;52.234;7.444;2023-04-01T00:51:48;5.60;;;3.50;;
31660;SDS011;18267;52.234;7.444;2023-04-01T00:54:16;7.70;;;3.70;;
31660;SDS011;18267;52.234;7.444;2023-04-01T00:56:57;4.53;;;3.92;;
31660;SDS011;18267;52.234;7.444;2023-04-01T00:59:31;6.72;;;3.75;;
31660;SDS011;18267;52.234;7.444;2023-04-01T01:02:02;5.00;;;3.53;;
31660;SDS011;18267;52.234;7.444;2023-04-01T01:04:31;4.35;;;3.08;;
31660;SDS011;18267;52.234;7.444;2023-04-01T01:07:01;5.00;;;3.03;;
31660;SDS011;18267;52.234;7.444;2023-04-01T01:12:38;6.45;;;3.33;;
31660;SDS011;18267;52.234;7.444;2023-04-01T01:23:19;2.78;;;2.58;;
31660;SDS011;18267;52.234;7.444;2023-04-01T01:31:21;4.30;;;3.22;;
31660;SDS011;18267;52.234;7.444;2023-04-01T01:37:01;2.30;;;2.10;;
31660;SDS011;18267;52.234;7.444;2023-04-01T01:39:36;3.72;;;3.00;;
31660;SDS011;18267;52.234;7.444;2023-04-01T01:42:05;5.43;;;2.60;;
31660;SDS011;18267;52.234;7.444;2023-04-01T01:44:33;4.75;;;2.90;;
31660;SDS011;18267;52.234;7.444;2023-04-01T01:47:01;6.95;;;2.63;;
31660;SDS011;18267;52.234;7.444;2023-04-01T01:49:28;2.80;;;2.47;;
31660;SDS011;18267;52.234;7.444;2023-04-01T01:51:56;7.43;;;3.20;;
31660;SDS011;18267;52.234;7.444;2023-04-01T01:54:22;2.65;;;2.45;;
31660;SDS011;18267;52.234;7.444;2023-04-01T01:56:49;4.10;;;2.80;;
31660;SDS011;18267;52.234;7.444;2023-04-01T01:59:20;3.67;;;2.33;;
31660;SDS011;18267;52.234;7.444;2023-04-01T02:01:49;3.13;;;2.25;;
31660;SDS011;18267;52.234;7.444;2023-04-01T02:04:17;3.88;;;2.60;;
31660;SDS011;18267;52.234;7.444;2023-04-01T02:06:46;2.70;;;2.50;;
31660;SDS011;18267;52.234;7.444;2023-04-01T02:09:19;3.20;;;2.42;;
31660;SDS011;18267;52.234;7.444;2023-04-01T02:11:47;3.45;;;2.40;;
31660;SDS011;18267;52.234;7.444;2023-04-01T02:14:24;3.00;;;2.80;;
31660;SDS011;18267;52.234;7.444;2023-04-01T02:19:27;4.60;;;2.92;;
31660;SDS011;18267;52.234;7.444;2023-04-01T02:22:00;4.47;;;3.22;;
31660;SDS011;18267;52.234;7.444;2023-04-01T02:24:31;6.15;;;2.90;;
31660;SDS011;18267;52.234;7.444;2023-04-01T02:27:00;4.97;;;3.13;;
31660;SDS011;18267;52.234;7.444;2023-04-01T02:29:25;2.55;;;2.35;;
31660;SDS011;18267;52.234;7.444;2023-04-01T02:31:52;3.65;;;2.78;;
31660;SDS011;18267;52.234;7.444;2023-04-01T02:34:19;3.20;;;2.95;;
31660;SDS011;18267;52.234;7.444;2023-04-01T02:36:47;3.35;;;2.50;;
31660;SDS011;18267;52.234;7.444;2023-04-01T02:39:14;2.65;;;2.45;;
31660;SDS011;18267;52.234;7.444;2023-04-01T02:41:43;4.50;;;3.00;;
31660;SDS011;18267;52.234;7.444;2023-04-01T02:44:10;3.85;;;2.88;;
31660;SDS011;18267;52.234;7.444;2023-04-01T02:46:37;4.50;;;2.63;;
31660;SDS011;18267;52.234;7.444;2023-04-01T02:49:04;2.75;;;2.55;;
31660;SDS011;18267;52.234;7.444;2023-04-01T02:51:30;2.38;;;2.22;;
31660;SDS011;18267;52.234;7.444;2023-04-01T02:53:56;4.72;;;2.47;;
31660;SDS011;18267;52.234;7.444;2023-04-01T02:56:23;2.40;;;2.20;;
31660;SDS011;18267;52.234;7.444;2023-04-01T02:58:50;4.78;;;2.38;;
31660;SDS011;18267;52.234;7.444;2023-04-01T03:01:16;4.05;;;2.35;;
31660;SDS011;18267;52.234;7.444;2023-04-01T03:03:41;3.83;;;2.75;;
31660;SDS011;18267;52.234;7.444;2023-04-01T03:06:08;4.30;;;2.55;;
31660;SDS011;18267;52.234;7.444;2023-04-01T03:08:35;5.22;;;2.67;;
31660;SDS011;18267;52.234;7.444;2023-04-01T03:11:02;4.90;;;2.80;;
31660;SDS011;18267;52.234;7.444;2023-04-01T03:13:27;3.90;;;2.90;;
31660;SDS011;18267;52.234;7.444;2023-04-01T03:15:53;3.17;;;2.88;;
31660;SDS011;18267;52.234;7.444;2023-04-01T03:18:19;3.28;;;2.88;;
31660;SDS011;18267;52.234;7.444;2023-04-01T03:20:45;2.83;;;2.63;;
31660;SDS011;18267;52.234;7.444;2023-04-01T03:23:10;3.40;;;2.50;;
31660;SDS011;18267;52.234;7.444;2023-04-01T03:25:37;4.22;;;2.85;;
31660;SDS011;18267;52.234;7.444;2023-04-01T03:28:02;4.07;;;3.00;;
31660;SDS011;18267;52.234;7.444;2023-04-01T03:30:29;4.18;;;3.78;;
31660;SDS011;18267;52.234;7.444;2023-04-01T03:32:57;2.50;;;2.30;;
31660;SDS011;18267;52.234;7.444;2023-04-01T03:35:24;2.97;;;2.67;;
31660;SDS011;18267;52.234;7.444;2023-04-01T03:37:50;9.05;;;2.90;;
31660;SDS011;18267;52.234;7.444;2023-04-01T03:40:17;3.53;;;2.80;;
31660;SDS011;18267;52.234;7.444;2023-04-01T03:42:42;3.83;;;2.55;;
31660;SDS011;18267;52.234;7.444;2023-04-01T03:45:08;2.38;;;2.17;;
31660;SDS011;18267;52.234;7.444;2023-04-01T03:47:35;3.10;;;2.80;;
31660;SDS011;18267;52.234;7.444;2023-04-01T03:50:00;3.08;;;2.63;;
31660;SDS011;18267;52.234;7.444;2023-04-01T03:52:26;3.22;;;2.53;;
31660;SDS011;18267;52.234;7.444;2023-04-01T03:54:52;4.10;;;2.38;;
31660;SDS011;18267;52.234;7.444;2023-04-01T03:57:17;2.90;;;2.13;;
31660;SDS011;18267;52.234;7.444;2023-04-01T03:59:44;2.40;;;2.20;;
31660;SDS011;18267;52.234;7.444;2023-04-01T04:02:09;2.90;;;2.35;;
31660;SDS011;18267;52.234;7.444;2023-04-01T04:04:35;2.33;;;2.10;;
31660;SDS011;18267;52.234;7.444;2023-04-01T04:07:01;2.50;;;2.30;;
31660;SDS011;18267;52.234;7.444;2023-04-01T04:09:29;2.30;;;2.10;;
31660;SDS011;18267;52.234;7.444;2023-04-01T04:11:55;2.15;;;1.88;;
31660;SDS011;18267;52.234;7.444;2023-04-01T04:14:22;1.73;;;1.63;;
31660;SDS011;18267;52.234;7.444;2023-04-01T04:16:48;4.57;;;2.20;;
31660;SDS011;18267;52.234;7.444;2023-04-01T04:19:14;2.15;;;2.05;;
31660;SDS011;18267;52.234;7.444;2023-04-01T04:21:40;2.15;;;1.95;;
31660;SDS011;18267;52.234;7.444;2023-04-01T04:24:07;1.88;;;1.77;;
31660;SDS011;18267;52.234;7.444;2023-04-01T04:26:33;2.80;;;2.17;;
31660;SDS011;18267;52.234;7.444;2023-04-01T04:29:00;2.85;;;2.28;;
31660;SDS011;18267;52.234;7.444;2023-04-01T04:31:26;2.38;;;2.17;;
31660;SDS011;18267;52.234;7.444;2023-04-01T04:33:52;2.40;;;2.20;;
31660;SDS011;18267;52.234;7.444;2023-04-01T04:36:18;2.20;;;2.10;;
31660;SDS011;18267;52.234;7.444;2023-04-01T04:38:44;2.55;;;2.35;;
31660;SDS011;18267;52.234;7.444;2023-04-01T04:41:11;2.85;;;2.65;;
31660;SDS011;18267;52.234;7.444;2023-04-01T04:43:41;2.67;;;2.47;;
31660;SDS011;18267;52.234;7.444;2023-04-01T04:46:13;2.28;;;2.08;;
31660;SDS011;18267;52.234;7.444;2023-04-01T04:48:38;1.90;;;1.80;;
31660;SDS011;18267;52.234;7.444;2023-04-01T04:51:04;3.38;;;2.35;;
31660;SDS011;18267;52.234;7.444;2023-04-01T04:53:30;2.85;;;2.25;;
31660;SDS011;18267;52.234;7.444;2023-04-01T04:55:56;2.25;;;2.03;;
31660;SDS011;18267;52.234;7.444;2023-04-01T04:58:22;2.70;;;2.50;;
31660;SDS011;18267;52.234;7.444;2023-04-01T05:00:47;2.80;;;2.60;;
31660;SDS011;18267;52.234;7.444;2023-04-01T05:03:13;2.78;;;2.55;;
31660;SDS011;18267;52.234;7.444;2023-04-01T05:05:39;2.75;;;2.55;;
31660;SDS011;18267;52.234;7.444;2023-04-01T05:08:05;2.08;;;1.88;;
31660;SDS011;18267;52.234;7.444;2023-04-01T05:10:31;3.70;;;2.53;;
31660;SDS011;18267;52.234;7.444;2023-04-01T05:12:57;2.40;;;2.20;;
31660;SDS011;18267;52.234;7.444;2023-04-01T05:15:23;2.40;;;2.20;;
31660;SDS011;18267;52.234;7.444;2023-04-01T05:17:49;2.10;;;1.98;;
31660;SDS011;18267;52.234;7.444;2023-04-01T05:20:15;2.35;;;2.00;;
31660;SDS011;18267;52.234;7.444;2023-04-01T05:22:41;4.80;;;2.10;;
31660;SDS011;18267;52.234;7.444;2023-04-01T05:25:07;2.03;;;1.83;;
31660;SDS011;18267;52.234;7.444;2023-04-01T05:27:33;5.53;;;2.17;;
31660;SDS011;18267;52.234;7.444;2023-04-01T05:29:58;2.63;;;2.15;;
31660;SDS011;18267;52.234;7.444;2023-04-01T05:32:25;2.10;;;1.90;;
31660;SDS011;18267;52.234;7.444;2023-04-01T05:34:52;2.17;;;1.88;;
31660;SDS011;18267;52.234;7.444;2023-04-01T05:37:18;2.42;;;1.90;;
31660;SDS011;18267;52.234;7.444;2023-04-01T05:39:44;2.22;;;1.90;;
31660;SDS011;18267;52.234;7.444;2023-04-01T05:42:10;2.95;;;1.80;;
31660;SDS011;18267;52.234;7.444;2023-04-01T05:44:36;3.45;;;2.08;;
31660;SDS011;18267;52.234;7.444;2023-04-01T05:47:02;3.85;;;1.70;;
31660;SDS011;18267;52.234;7.444;2023-04-01T05:49:29;3.08;;;1.70;;
31660;SDS011;18267;52.234;7.444;2023-04-01T05:51:55;5.30;;;1.73;;
31660;SDS011;18267;52.234;7.444;2023-04-01T05:54:21;1.63;;;1.52;;
31660;SDS011;18267;52.234;7.444;2023-04-01T05:56:48;2.17;;;1.63;;
31660;SDS011;18267;52.234;7.444;2023-04-01T05:59:14;3.38;;;2.20;;
31660;SDS011;18267;52.234;7.444;2023-04-01T06:01:39;3.80;;;2.00;;
31660;SDS011;18267;52.234;7.444;2023-04-01T06:04:05;3.40;;;2.00;;
31660;SDS011;18267;52.234;7.444;2023-04-01T06:06:34;2.58;;;1.90;;
31660;SDS011;18267;52.234;7.444;2023-04-01T06:09:12;3.67;;;1.85;;
31660;SDS011;18267;52.234;7.444;2023-04-01T06:11:51;2.22;;;1.88;;
31660;SDS011;18267;52.234;7.444;2023-04-01T06:17:19;1.53;;;1.30;;
31660;SDS011;18267;52.234;7.444;2023-04-01T06:20:09;2.70;;;1.52;;
31660;SDS011;18267;52.234;7.444;2023-04-01T06:22:40;3.30;;;1.52;;
31660;SDS011;18267;52.234;7.444;2023-04-01T06:25:24;6.30;;;1.50;;
31660;SDS011;18267;52.234;7.444;2023-04-01T06:30:50;1.73;;;1.38;;
31660;SDS011;18267;52.234;7.444;2023-04-01T06:41:44;2.28;;;1.45;;
31660;SDS011;18267;52.234;7.444;2023-04-01T06:50:02;1.40;;;1.30;;
31660;SDS011;18267;52.234;7.444;2023-04-01T06:58:03;2.70;;;1.30;;
31660;SDS011;18267;52.234;7.444;2023-04-01T07:00:36;2.15;;;1.50;;
31660;SDS011;18267;52.234;7.444;2023-04-01T07:06:01;2.33;;;1.67;;
31660;SDS011;18267;52.234;7.444;2023-04-01T07:08:40;2.00;;;1.60;;
31660;SDS011;18267;52.234;7.444;2023-04-01T07:11:11;3.15;;;1.60;;
31660;SDS011;18267;52.234;7.444;2023-04-01T07:14:34;3.08;;;1.33;;
31660;SDS011;18267;52.234;7.444;2023-04-01T07:17:17;2.05;;;1.55;;
31660;SDS011;18267;52.234;7.444;2023-04-01T07:19:59;2.00;;;1.55;;
31660;SDS011;18267;52.234;7.444;2023-04-01T07:22:35;3.45;;;1.35;;
31660;SDS011;18267;52.234;7.444;2023-04-01T07:25:13;1.67;;;1.58;;
31660;SDS011;18267;52.234;7.444;2023-04-01T07:27:45;2.75;;;1.92;;
31660;SDS011;18267;52.234;7.444;2023-04-01T07:30:16;2.05;;;1.75;;
31660;SDS011;18267;52.234;7.444;2023-04-01T07:32:47;2.80;;;2.30;;
31660;SDS011;18267;52.234;7.444;2023-04-01T07:35:30;2.33;;;2.03;;
31660;SDS011;18267;52.234;7.444;2023-04-01T07:38:04;4.05;;;1.95;;
31660;SDS011;18267;52.234;7.444;2023-04-01T07:44:16;2.53;;;2.33;;
31660;SDS011;18267;52.234;7.444;2023-04-01T07:46:59;2.28;;;1.80;;
31660;SDS011;18267;52.234;7.444;2023-04-01T07:52:49;3.17;;;2.08;;
31660;SDS011;18267;52.234;7.444;2023-04-01T07:56:12;5.82;;;2.67;;
31660;SDS011;18267;52.234;7.444;2023-04-01T08:01:45;2.33;;;2.13;;
31660;SDS011;18267;52.234;7.444;2023-04-01T08:07:30;5.00;;;2.97;;
31660;SDS011;18267;52.234;7.444;2023-04-01T08:10:14;2.70;;;2.25;;
31660;SDS011;18267;52.234;7.444;2023-04-01T08:13:05;2.77;;;2.27;;
31660;SDS011;18267;52.234;7.444;2023-04-01T08:18:34;2.30;;;1.90;;
31660;SDS011;18267;52.234;7.444;2023-04-01T08:21:15;2.05;;;1.75;;
31660;SDS011;18267;52.234;7.444;2023-04-01T08:24:08;4.43;;;1.40;;
31660;SDS011;18267;52.234;7.444;2023-04-01T08:26:46;2.40;;;1.67;;
31660;SDS011;18267;52.234;7.444;2023-04-01T08:29:19;1.73;;;1.63;;
31660;SDS011;18267;52.234;7.444;2023-04-01T08:31:58;3.47;;;1.80;;
31660;SDS011;18267;52.234;7.444;2023-04-01T08:34:32;1.67;;;1.55;;
31660;SDS011;18267;52.234;7.444;2023-04-01T08:37:05;3.30;;;1.33;;
31660;SDS011;18267;52.234;7.444;2023-04-01T08:39:45;1.50;;;1.40;;
31660;SDS011;18267;52.234;7.444;2023-04-01T08:45:04;1.48;;;1.38;;
31660;SDS011;18267;52.234;7.444;2023-04-01T09:20:44;2.78;;;1.38;;
31660;SDS011;18267;52.234;7.444;2023-04-01T09:26:35;1.52;;;1.42;;
31660;SDS011;18267;52.234;7.444;2023-04-01T09:34:51;1.83;;;1.70;;
31660;SDS011;18267;52.234;7.444;2023-04-01T09:37:52;1.50;;;1.40;;
31660;SDS011;18267;52.234;7.444;2023-04-01T09:40:54;1.70;;;1.60;;
31660;SDS011;18267;52.234;7.444;2023-04-01T09:43:28;1.45;;;1.30;;
31660;SDS011;18267;52.234;7.444;2023-04-01T09:49:09;1.80;;;1.15;;
31660;SDS011;18267;52.234;7.444;2023-04-01T09:57:53;1.27;;;1.17;;
31660;SDS011;18267;52.234;7.444;2023-04-01T10:23:51;1.17;;;1.08;;
31660;SDS011;18267;52.234;7.444;2023-04-01T10:29:31;1.30;;;1.30;;
31660;SDS011;18267;52.234;7.444;2023-04-01T10:32:21;1.33;;;1.25;;
31660;SDS011;18267;52.234;7.444;2023-04-01T10:38:09;1.75;;;1.50;;
31660;SDS011;18267;52.234;7.444;2023-04-01T10:44:03;1.73;;;1.63;;
31660;SDS011;18267;52.234;7.444;2023-04-01T11:06:23;2.45;;;2.25;;
31660;SDS011;18267;52.234;7.444;2023-04-01T11:17:42;4.03;;;3.15;;
31660;SDS011;18267;52.234;7.444;2023-04-01T11:44:17;3.30;;;3.00;;
31660;SDS011;18267;52.234;7.444;2023-04-01T12:06:40;5.70;;;4.28;;
31660;SDS011;18267;52.234;7.444;2023-04-01T12:23:00;1.55;;;1.45;;
31660;SDS011;18267;52.234;7.444;2023-04-01T12:26:10;2.35;;;2.15;;
31660;SDS011;18267;52.234;7.444;2023-04-01T12:52:05;6.78;;;3.30;;
31660;SDS011;18267;52.234;7.444;2023-04-01T13:06:37;3.60;;;2.88;;
31660;SDS011;18267;52.234;7.444;2023-04-01T13:12:03;2.20;;;1.20;;
31660;SDS011;18267;52.234;7.444;2023-04-01T13:26:17;2.28;;;1.75;;
31660;SDS011;18267;52.234;7.444;2023-04-01T13:29:17;2.38;;;1.92;;
31660;SDS011;18267;52.234;7.444;2023-04-01T13:31:50;2.90;;;2.20;;
31660;SDS011;18267;52.234;7.444;2023-04-01T13:37:24;1.88;;;1.67;;
31660;SDS011;18267;52.234;7.444;2023-04-01T13:40:11;1.95;;;1.52;;
31660;SDS011;18267;52.234;7.444;2023-04-01T13:48:36;2.53;;;1.73;;
31660;SDS011;18267;52.234;7.444;2023-04-01T13:59:53;2.53;;;2.33;;
31660;SDS011;18267;52.234;7.444;2023-04-01T14:02:47;2.20;;;2.00;;
31660;SDS011;18267;52.234;7.444;2023-04-01T14:23:02;2.58;;;2.38;;
31660;SDS011;18267;52.234;7.444;2023-04-01T14:25:58;2.25;;;1.95;;
31660;SDS011;18267;52.234;7.444;2023-04-01T14:29:28;2.50;;;2.00;;
31660;SDS011;18267;52.234;7.444;2023-04-01T14:43:28;2.22;;;2.00;;
31660;SDS011;18267;52.234;7.444;2023-04-01T14:46:46;2.05;;;1.67;;
31660;SDS011;18267;52.234;7.444;2023-04-01T14:49:39;2.03;;;1.83;;
31660;SDS011;18267;52.234;7.444;2023-04-01T14:55:26;3.00;;;1.52;;
31660;SDS011;18267;52.234;7.444;2023-04-01T14:57:58;1.73;;;1.63;;
31660;SDS011;18267;52.234;7.444;2023-04-01T15:03:37;1.98;;;1.70;;
31660;SDS011;18267;52.234;7.444;2023-04-01T15:08:33;3.33;;;2.50;;
31660;SDS011;18267;52.234;7.444;2023-04-01T15:11:14;2.15;;;1.95;;
31660;SDS011;18267;52.234;7.444;2023-04-01T15:14:04;2.00;;;1.80;;
31660;SDS011;18267;52.234;7.444;2023-04-01T15:23:09;2.08;;;1.60;;
31660;SDS011;18267;52.234;7.444;2023-04-01T15:28:30;2.30;;;2.10;;
31660;SDS011;18267;52.234;7.444;2023-04-01T15:31:21;1.58;;;1.48;;
31660;SDS011;18267;52.234;7.444;2023-04-01T15:34:20;2.08;;;1.58;;
31660;SDS011;18267;52.234;7.444;2023-04-01T15:37:02;1.38;;;1.25;;
31660;SDS011;18267;52.234;7.444;2023-04-01T15:39:51;1.13;;;1.00;;
31660;SDS011;18267;52.234;7.444;2023-04-01T15:45:30;1.65;;;1.00;;
31660;SDS011;18267;52.234;7.444;2023-04-01T15:48:01;0.90;;;0.80;;
31660;SDS011;18267;52.234;7.444;2023-04-01T15:51:11;1.42;;;0.80;;
31660;SDS011;18267;52.234;7.444;2023-04-01T16:07:55;0.52;;;0.50;;
31660;SDS011;18267;52.234;7.444;2023-04-01T16:24:43;1.35;;;0.88;;
31660;SDS011;18267;52.234;7.444;2023-04-01T16:29:55;0.85;;;0.82;;
31660;SDS011;18267;52.234;7.444;2023-04-01T16:33:05;0.73;;;0.73;;
31660;SDS011;18267;52.234;7.444;2023-04-01T16:38:07;0.82;;;0.55;;
31660;SDS011;18267;52.234;7.444;2023-04-01T16:46:35;3.45;;;1.42;;
31660;SDS011;18267;52.234;7.444;2023-04-01T16:54:36;9.73;;;3.65;;
31660;SDS011;18267;52.234;7.444;2023-04-01T16:57:14;6.65;;;2.60;;
31660;SDS011;18267;52.234;7.444;2023-04-01T17:02:38;1.08;;;0.90;;
31660;SDS011;18267;52.234;7.444;2023-04-01T17:05:35;2.97;;;1.60;;
31660;SDS011;18267;52.234;7.444;2023-04-01T17:08:09;0.60;;;0.40;;
31660;SDS011;18267;52.234;7.444;2023-04-01T17:10:53;0.80;;;0.70;;
31660;SDS011;18267;52.234;7.444;2023-04-01T17:19:03;1.27;;;0.40;;
31660;SDS011;18267;52.234;7.444;2023-04-01T17:30:32;0.60;;;0.60;;
31660;SDS011;18267;52.234;7.444;2023-04-01T17:33:10;2.50;;;1.02;;
31660;SDS011;18267;52.234;7.444;2023-04-01T17:41:24;0.43;;;0.40;;
31660;SDS011;18267;52.234;7.444;2023-04-01T17:50:00;0.40;;;0.40;;
31660;SDS011;18267;52.234;7.444;2023-04-01T17:52:28;0.93;;;0.40;;
31660;SDS011;18267;52.234;7.444;2023-04-01T17:58:03;0.40;;;0.40;;
31660;SDS011;18267;52.234;7.444;2023-04-01T18:00:38;0.60;;;0.60;;
31660;SDS011;18267;52.234;7.444;2023-04-01T18:06:34;0.52;;;0.50;;
31660;SDS011;18267;52.234;7.444;2023-04-01T18:09:20;0.40;;;0.40;;
31660;SDS011;18267;52.234;7.444;2023-04-01T18:14:41;2.33;;;1.87;;
31660;SDS011;18267;52.234;7.444;2023-04-01T18:25:43;11.55;;;3.38;;
31660;SDS011;18267;52.234;7.444;2023-04-01T18:28:24;2.40;;;0.90;;
31660;SDS011;18267;52.234;7.444;2023-04-01T18:39:39;0.43;;;0.43;;
31660;SDS011;18267;52.234;7.444;2023-04-01T18:45:14;0.40;;;0.40;;
31660;SDS011;18267;52.234;7.444;2023-04-01T18:50:38;0.80;;;0.60;;
31660;SDS011;18267;52.234;7.444;2023-04-01T18:53:12;0.50;;;0.50;;
31660;SDS011;18267;52.234;7.444;2023-04-01T18:55:59;2.78;;;0.65;;
31660;SDS011;18267;52.234;7.444;2023-04-01T18:58:35;0.80;;;0.57;;
31660;SDS011;18267;52.234;7.444;2023-04-01T19:01:18;0.70;;;0.70;;
31660;SDS011;18267;52.234;7.444;2023-04-01T19:06:42;1.10;;;0.80;;
31660;SDS011;18267;52.234;7.444;2023-04-01T19:20:46;1.60;;;0.95;;
31660;SDS011;18267;52.234;7.444;2023-04-01T19:29:16;0.88;;;0.85;;
31660;SDS011;18267;52.234;7.444;2023-04-01T19:37:32;0.70;;;0.70;;
31660;SDS011;18267;52.234;7.444;2023-04-01T19:42:32;1.73;;;1.10;;
31660;SDS011;18267;52.234;7.444;2023-04-01T19:45:26;1.30;;;1.08;;
31660;SDS011;18267;52.234;7.444;2023-04-01T19:50:51;1.10;;;0.90;;
31660;SDS011;18267;52.234;7.444;2023-04-01T19:59:08;1.05;;;0.95;;
31660;SDS011;18267;52.234;7.444;2023-04-01T20:02:19;1.52;;;1.20;;
31660;SDS011;18267;52.234;7.444;2023-04-01T20:05:52;4.97;;;1.20;;
31660;SDS011;18267;52.234;7.444;2023-04-01T20:07:59;1.23;;;0.82;;
31660;SDS011;18267;52.234;7.444;2023-04-01T20:10:38;1.48;;;1.02;;
31660;SDS011;18267;52.234;7.444;2023-04-01T20:13:39;1.50;;;1.20;;
31660;SDS011;18267;52.234;7.444;2023-04-01T20:16:37;1.00;;;1.00;;
31660;SDS011;18267;52.234;7.444;2023-04-01T20:42:27;1.45;;;1.15;;
31660;SDS011;18267;52.234;7.444;2023-04-01T21:01:43;0.82;;;0.82;;
31660;SDS011;18267;52.234;7.444;2023-04-01T21:16:06;0.85;;;0.85;;
31660;SDS011;18267;52.234;7.444;2023-04-01T21:18:57;1.10;;;0.82;;
31660;SDS011;18267;52.234;7.444;2023-04-01T21:32:45;1.65;;;1.38;;
31660;SDS011;18267;52.234;7.444;2023-04-01T21:46:26;2.15;;;1.50;;
31660;SDS011;18267;52.234;7.444;2023-04-01T21:57:42;2.67;;;1.95;;
31660;SDS011;18267;52.234;7.444;2023-04-01T22:00:19;4.43;;;1.50;;
31660;SDS011;18267;52.234;7.444;2023-04-01T22:13:50;1.95;;;1.75;;
31660;SDS011;18267;52.234;7.444;2023-04-01T22:16:39;3.47;;;1.50;;
31660;SDS011;18267;52.234;7.444;2023-04-01T22:22:08;2.55;;;1.08;;
31660;SDS011;18267;52.234;7.444;2023-04-01T22:30:06;1.50;;;0.90;;
31660;SDS011;18267;52.234;7.444;2023-04-01T22:33:15;3.35;;;1.30;;
31660;SDS011;18267;52.234;7.444;2023-04-01T22:39:04;4.13;;;1.38;;
31660;SDS011;18267;52.234;7.444;2023-04-01T22:44:00;2.10;;;1.38;;
31660;SDS011;18267;52.234;7.444;2023-04-01T22:52:03;1.55;;;1.38;;
31660;SDS011;18267;52.234;7.444;2023-04-01T22:54:55;2.22;;;1.80;;
31660;SDS011;18267;52.234;7.444;2023-04-01T23:00:35;2.00;;;1.45;;
31660;SDS011;18267;52.234;7.444;2023-04-01T23:03:17;4.65;;;1.98;;
31660;SDS011;18267;52.234;7.444;2023-04-01T23:05:57;2.15;;;1.95;;
31660;SDS011;18267;52.234;7.444;2023-04-01T23:11:54;1.92;;;1.63;;
31660;SDS011;18267;52.234;7.444;2023-04-01T23:13:58;2.53;;;2.15;;
31660;SDS011;18267;52.234;7.444;2023-04-01T23:17:31;3.95;;;2.70;;
31660;SDS011;18267;52.234;7.444;2023-04-01T23:28:29;3.90;;;2.45;;
31660;SDS011;18267;52.234;7.444;2023-04-01T23:33:53;3.05;;;2.30;;
31660;SDS011;18267;52.234;7.444;2023-04-01T23:36:20;4.68;;;2.40;;
31660;SDS011;18267;52.234;7.444;2023-04-01T23:38:47;8.40;;;3.10;;
31660;SDS011;18267;52.234;7.444;2023-04-01T23:41:25;9.68;;;2.88;;
31660;SDS011;18267;52.234;7.444;2023-04-01T23:44:10;4.03;;;2.38;;
31660;SDS011;18267;52.234;7.444;2023-04-01T23:46:39;2.70;;;2.40;;
31660;SDS011;18267;52.234;7.444;2023-04-01T23:49:10;5.45;;;2.83;;
31660;SDS011;18267;52.234;7.444;2023-04-01T23:51:46;9.25;;;3.20;;
31660;SDS011;18267;52.234;7.444;2023-04-01T23:57:18;4.22;;;2.80;;
